This is the latest recevied weather packets stored in our database for station/object K5MGY. If no packets are shown the sender has not sent any weather packets the latest 10 day(s).
| Time | Temp. | Humidity | Pressure | Rain* | Wind** | Luminosity | Snow |
|---|---|---|---|---|---|---|---|
| 1778080567 | 12.22° C | 88% | 1038.7 hPa | 0 mm | - | 54 W/m² | - |
| 1778080264 | 12.22° C | 87% | 1039.2 hPa | 1.78 mm | - | 36 W/m² | - |
| 1778079960 | 12.78° C | 86% | 1039.4 hPa | 1.78 mm | - | 24 W/m² | - |
| 1778079657 | 12.78° C | 84% | 1039.4 hPa | 0 mm | - | 26 W/m² | - |
| 1778079354 | 12.78° C | 83% | 1040.4 hPa | 0 mm | - | 6 W/m² | - |
| 1778079051 | 12.78° C | 82% | 1040.2 hPa | 0 mm | - | 14 W/m² | - |
| 1778078748 | 12.78° C | 82% | 1039.9 hPa | 0 mm | - | 15 W/m² | - |
| 1778078445 | 12.78° C | 81% | 1039.8 hPa | 0 mm | - | 19 W/m² | - |
| 1778078143 | 12.78° C | 81% | 1039.6 hPa | 0 mm | - | 21 W/m² | - |
| 1778077841 | 12.78° C | 80% | 1039.7 hPa | 0 mm | - | 10 W/m² | - |
| 1778077538 | 12.78° C | 80% | 1038.1 hPa | 0 mm | - | 24 W/m² | - |
| 1778077237 | 12.78° C | 79% | 1038.5 hPa | 0 mm | - | 26 W/m² | - |
| 1778076934 | 13.33° C | 79% | 1038.7 hPa | 0 mm | - | 22 W/m² | - |
| 1778076632 | 13.33° C | 78% | 1038.3 hPa | 0 mm | - | 27 W/m² | - |
| 1778076329 | 13.33° C | 79% | 1038.5 hPa | 0 mm | - | 33 W/m² | - |
| 1778076026 | 13.33° C | 78% | 1038.1 hPa | 0 mm | - | 43 W/m² | - |
| 1778075723 | 13.33° C | 78% | 1038.5 hPa | 0 mm | - | 39 W/m² | - |
| 1778075419 | 13.33° C | 78% | 1038.5 hPa | 0 mm | - | 34 W/m² | - |
| 1778075116 | 13.33° C | 77% | 1038.5 hPa | 0 mm | - | 34 W/m² | - |
| 1778074812 | 13.33° C | 77% | 1037.9 hPa | 0 mm | - | 33 W/m² | - |
| 1778074509 | 13.33° C | 76% | 1037.7 hPa | 0 mm | - | 35 W/m² | - |
| 1778074206 | 13.33° C | 75% | 1037.9 hPa | 0 mm | - | 32 W/m² | - |
| 1778073903 | 13.33° C | 75% | 1037.7 hPa | 0 mm | - | 32 W/m² | - |
| 1778073601 | 13.33° C | 75% | 1037.9 hPa | 0 mm | - | 30 W/m² | - |
| 1778073298 | 13.89° C | 75% | 1037.7 hPa | 0 mm | - | 34 W/m² | - |
* Rain latest hour (hover to see other rain measurements)
** Current wind speed in m/s (hover to see current wind gust speed)